Time;durP1;ratioP1;P1;durP2;ratioP2;P2;SDS_P1;SDS_P2;PMS_P1;PMS_P2;Temp;Humidity;BMP_temperature;BMP_pressure;BME280_temperature;BME280_humidity;BME280_pressure;Samples;Min_cycle;Max_cycle;Signal;HPM_P1;HPM_P2
2022/07/17 00:00:43;;;;;;;6.70;2.00;;;;;;;22.72;38.58;101872.63;5033162;28;20053;-70
2022/07/17 00:03:14;;;;;;;5.30;1.90;;;;;;;22.65;38.61;101875.31;5042679;28;20034;-68
2022/07/17 00:05:43;;;;;;;5.70;2.22;;;;;;;22.73;38.46;101877.91;5034242;28;20054;-68
2022/07/17 00:08:11;;;;;;;7.85;2.00;;;;;;;22.92;38.17;101879.91;5042315;28;20052;-70
2022/07/17 00:10:40;;;;;;;6.88;2.20;;;;;;;22.89;38.30;101883.47;5054205;28;20057;-68
2022/07/17 00:13:09;;;;;;;6.18;2.20;;;;;;;22.94;37.89;101872.75;5025560;28;20056;-69
2022/07/17 00:15:37;;;;;;;5.72;2.33;;;;;;;22.87;38.32;101864.16;5033620;28;20052;-68
2022/07/17 00:18:06;;;;;;;6.43;2.30;;;;;;;22.76;38.69;101865.09;5034087;28;20389;-68
2022/07/17 00:20:34;;;;;;;6.82;2.25;;;;;;;22.69;38.75;101867.75;5037710;28;20053;-69
2022/07/17 00:23:01;;;;;;;7.07;2.38;;;;;;;22.71;38.50;101871.84;5039448;28;20517;-68
2022/07/17 00:25:29;;;;;;;4.85;2.53;;;;;;;22.48;38.81;101868.06;5036181;28;20056;-68
2022/07/17 00:27:56;;;;;;;5.32;1.70;;;;;;;22.49;38.99;101878.09;5037049;28;20049;-69
2022/07/17 00:30:24;;;;;;;7.10;2.50;;;;;;;22.58;38.97;101875.16;5036432;28;20519;-69
2022/07/17 00:32:51;;;;;;;5.15;2.35;;;;;;;22.58;38.78;101875.94;5033312;28;20052;-68
2022/07/17 00:35:19;;;;;;;4.40;2.08;;;;;;;22.63;39.00;101877.66;5039040;28;20049;-68
2022/07/17 00:37:48;;;;;;;3.97;2.00;;;;;;;22.61;38.84;101875.22;5038582;28;20049;-70
2022/07/17 00:40:21;;;;;;;6.95;2.50;;;;;;;22.55;39.08;101871.06;5021062;28;20403;-69
2022/07/17 00:42:49;;;;;;;4.38;1.95;;;;;;;22.52;39.16;101877.38;5030552;28;20053;-68
2022/07/17 00:45:16;;;;;;;5.82;2.05;;;;;;;22.52;39.10;101865.34;5030992;28;20535;-68
2022/07/17 00:47:55;;;;;;;6.28;2.20;;;;;;;22.54;39.10;101866.63;5030827;28;20063;-68
2022/07/17 00:50:25;;;;;;;8.45;2.20;;;;;;;22.53;38.97;101864.13;5040209;28;20051;-68
2022/07/17 00:52:52;;;;;;;5.72;2.17;;;;;;;22.58;38.88;101870.31;5045743;28;20053;-68
2022/07/17 00:55:20;;;;;;;7.68;2.45;;;;;;;22.61;39.00;101877.22;5038603;28;20048;-68
2022/07/17 00:58:10;;;;;;;6.55;2.17;;;;;;;22.40;39.20;101873.88;5034469;28;20053;-68
2022/07/17 01:00:37;;;;;;;8.32;2.20;;;;;;;22.34;39.65;101879.78;5039061;28;20037;-68
2022/07/17 01:03:09;;;;;;;5.25;1.90;;;;;;;22.30;39.57;101873.25;5033592;28;20416;-68
2022/07/17 01:05:36;;;;;;;5.80;2.05;;;;;;;22.40;39.31;101873.88;5031032;28;20654;-68
2022/07/17 01:08:04;;;;;;;7.97;2.10;;;;;;;22.37;39.33;101874.63;5043410;28;20052;-68
2022/07/17 01:10:32;;;;;;;7.07;2.10;;;;;;;22.31;39.52;101874.91;5057208;28;20049;-68
2022/07/17 01:13:00;;;;;;;5.38;2.20;;;;;;;22.27;39.35;101882.41;5034603;28;20709;-67
2022/07/17 01:15:28;;;;;;;10.55;1.90;;;;;;;22.43;39.42;101873.13;5036920;28;20064;-67
2022/07/17 01:17:56;;;;;;;8.10;1.85;;;;;;;22.23;39.80;101873.09;5030420;28;20060;-66
2022/07/17 01:20:23;;;;;;;5.03;2.10;;;;;;;22.11;39.88;101877.97;5026319;28;20064;-68
2022/07/17 01:22:51;;;;;;;7.38;2.33;;;;;;;22.06;40.07;101872.66;5028726;28;20045;-67
2022/07/17 01:25:20;;;;;;;4.20;1.95;;;;;;;21.94;40.40;101867.97;5045430;28;20053;-66
2022/07/17 01:27:48;;;;;;;5.88;2.38;;;;;;;21.95;40.27;101865.97;5048601;28;20539;-67
2022/07/17 01:30:15;;;;;;;7.25;2.47;;;;;;;21.99;40.13;101880.88;5028354;28;20060;-67
2022/07/17 01:32:43;;;;;;;10.80;2.30;;;;;;;22.14;39.92;101872.47;5030538;28;20049;-67
2022/07/17 01:35:12;;;;;;;7.65;2.72;;;;;;;22.17;39.87;101863.31;5025710;28;20064;-67
2022/07/17 01:37:40;;;;;;;5.32;2.00;;;;;;;22.02;40.12;101869.75;5029287;28;20059;-67
2022/07/17 01:40:12;;;;;;;4.05;2.30;;;;;;;22.05;40.40;101862.63;5035918;28;20056;-66
2022/07/17 01:42:43;;;;;;;7.05;2.30;;;;;;;22.07;40.15;101863.06;5032088;28;20411;-68
2022/07/17 01:45:11;;;;;;;6.45;2.10;;;;;;;22.08;40.40;101864.69;5025588;28;20558;-68
2022/07/17 01:47:38;;;;;;;6.28;2.10;;;;;;;22.05;40.21;101857.81;5031910;28;20049;-68
2022/07/17 01:50:06;;;;;;;6.00;2.50;;;;;;;22.08;40.11;101859.91;5030169;28;20049;-68
2022/07/17 01:52:38;;;;;;;7.20;2.45;;;;;;;21.87;40.57;101859.34;5031169;28;20046;-67
2022/07/17 01:55:07;;;;;;;5.28;2.42;;;;;;;21.91;40.49;101851.84;5028805;28;20049;-67
2022/07/17 01:57:34;;;;;;;6.55;2.05;;;;;;;;;;5030965;28;21627;-67
2022/07/17 02:00:04;;;;;;;6.10;2.65;;;;;;;21.89;40.53;101859.81;5033254;28;20057;-67
2022/07/17 02:02:34;;;;;;;7.63;2.53;;;;;;;21.81;40.84;101855.19;5039296;28;20041;-68
2022/07/17 02:05:01;;;;;;;9.63;2.58;;;;;;;21.99;40.25;101850.03;5026674;28;20140;-68
2022/07/17 02:07:31;;;;;;;4.18;2.22;;;;;;;21.83;40.34;101846.41;5039615;28;20609;-68
2022/07/17 02:09:58;;;;;;;9.52;2.20;;;;;;;21.82;40.80;101844.78;5060115;28;20053;-68
2022/07/17 02:12:25;;;;;;;5.47;2.05;;;;;;;21.83;40.72;101844.41;5038466;28;20046;-67
2022/07/17 02:14:53;;;;;;;6.55;2.00;;;;;;;21.86;40.48;101843.69;5033590;28;21749;-67
2022/07/17 02:17:20;;;;;;;5.70;1.95;;;;;;;21.56;40.81;101838.88;5034089;28;20056;-68
2022/07/17 02:19:47;;;;;;;5.07;1.90;;;;;;;21.56;40.99;101841.66;5032697;28;20063;-68
2022/07/17 02:22:15;;;;;;;4.18;1.88;;;;;;;21.54;41.02;101844.84;5034086;28;20041;-68
2022/07/17 02:24:42;;;;;;;5.05;1.90;;;;;;;21.54;40.79;101844.00;5033663;28;20056;-68
2022/07/17 02:27:09;;;;;;;6.47;2.20;;;;;;;21.60;40.75;101846.19;5038794;28;20419;-68
2022/07/17 02:29:37;;;;;;;6.60;2.20;;;;;;;21.72;40.51;101843.31;5011655;28;20068;-69
2022/07/17 02:32:05;;;;;;;7.88;2.60;;;;;;;21.69;40.38;101843.22;5036079;28;20049;-68
2022/07/17 02:34:33;;;;;;;9.27;3.85;;;;;;;21.53;40.80;101846.00;5040128;28;20060;-68
2022/07/17 02:37:00;;;;;;;9.10;4.88;;;;;;;21.52;40.80;101844.38;5033473;28;20053;-67
2022/07/17 02:39:27;;;;;;;10.90;4.70;;;;;;;21.60;40.45;101845.38;5045321;28;20065;-68
2022/07/17 02:41:54;;;;;;;10.05;4.72;;;;;;;21.60;40.54;101853.81;5033445;28;20049;-67
2022/07/17 02:44:22;;;;;;;13.60;4.63;;;;;;;21.52;40.91;101844.38;5047272;28;21038;-68
2022/07/17 02:46:49;;;;;;;10.23;4.75;;;;;;;21.50;40.87;101841.13;5033720;28;20080;-68
2022/07/17 02:49:16;;;;;;;9.70;4.07;;;;;;;21.49;40.62;101835.88;5040439;28;20053;-68
2022/07/17 02:51:44;;;;;;;10.88;3.97;;;;;;;21.59;40.62;101844.56;5033705;28;20492;-67
2022/07/17 02:54:11;;;;;;;14.18;4.47;;;;;;;21.79;40.33;101842.72;5038171;28;20041;-68
2022/07/17 02:56:38;;;;;;;10.93;3.35;;;;;;;21.84;40.25;101834.03;5039185;28;20064;-68
2022/07/17 02:59:06;;;;;;;8.35;3.40;;;;;;;21.82;39.98;101833.56;5035710;28;20041;-67
2022/07/17 03:01:34;;;;;;;10.93;3.35;;;;;;;21.78;40.21;101825.06;5032357;28;20777;-67
2022/07/17 03:04:02;;;;;;;8.27;3.42;;;;;;;21.80;40.17;101833.09;5038296;28;20065;-67
2022/07/17 03:06:29;;;;;;;10.25;3.03;;;;;;;21.83;39.97;101837.97;5033542;28;20057;-68
2022/07/17 03:08:56;;;;;;;9.00;2.33;;;;;;;21.55;40.50;101842.84;5038668;28;20543;-68
2022/07/17 03:11:24;;;;;;;6.65;2.42;;;;;;;21.42;40.72;101835.69;5036196;28;20424;-68
2022/07/17 03:13:52;;;;;;;8.68;2.70;;;;;;;21.28;41.05;101838.91;5042396;28;20053;-67
2022/07/17 03:16:19;;;;;;;6.03;2.10;;;;;;;21.34;40.90;101839.47;5042116;28;20041;-68
2022/07/17 03:18:47;;;;;;;4.50;1.67;;;;;;;21.48;40.90;101835.03;5032282;28;20060;-67
2022/07/17 03:21:14;;;;;;;5.65;1.85;;;;;;;21.60;40.46;101834.97;5038085;28;20432;-68
2022/07/17 03:23:41;;;;;;;7.30;2.28;;;;;;;21.37;41.26;101835.94;5038024;28;20049;-68
2022/07/17 03:26:09;;;;;;;6.72;2.03;;;;;;;21.38;41.08;101835.59;5036968;28;20583;-69
2022/07/17 03:28:36;;;;;;;6.40;2.42;;;;;;;21.57;40.82;101834.88;5045746;28;20060;-68
2022/07/17 03:31:04;;;;;;;7.45;2.20;;;;;;;21.49;40.59;101839.50;5043065;28;20052;-68
2022/07/17 03:33:31;;;;;;;5.00;1.88;;;;;;;21.49;40.77;101838.66;5040497;28;20410;-68
2022/07/17 03:35:58;;;;;;;9.07;2.08;;;;;;;21.43;40.37;101843.72;5041518;28;20424;-68
2022/07/17 03:38:26;;;;;;;6.72;2.30;;;;;;;21.48;40.45;101846.25;5045050;28;20053;-67
2022/07/17 03:40:53;;;;;;;3.25;1.70;;;;;;;21.37;41.04;101852.75;5034287;28;20041;-67
2022/07/17 03:43:20;;;;;;;5.95;2.22;;;;;;;21.41;40.72;101862.09;5039894;28;20037;-68
2022/07/17 03:45:48;;;;;;;5.40;1.83;;;;;;;21.29;41.04;101864.97;5042758;28;20048;-63
2022/07/17 03:48:15;;;;;;;6.00;1.80;;;;;;;21.43;40.95;101862.56;5039035;28;20052;-63
2022/07/17 03:50:44;;;;;;;7.07;1.85;;;;;;;21.46;41.32;101859.84;5039699;28;20630;-65
2022/07/17 03:53:11;;;;;;;4.57;1.50;;;;;;;21.50;40.72;101857.94;5037561;28;20045;-63
2022/07/17 03:55:39;;;;;;;8.07;1.98;;;;;;;21.33;41.26;101863.06;5037324;28;20064;-65
2022/07/17 03:58:06;;;;;;;5.78;1.75;;;;;;;21.46;41.33;101865.47;5038436;28;20064;-63
2022/07/17 04:00:34;;;;;;;5.00;2.00;;;;;;;21.05;42.01;101858.28;5042006;28;20472;-68
2022/07/17 04:03:01;;;;;;;7.18;2.15;;;;;;;20.99;42.18;101858.91;5045402;28;20036;-64
2022/07/17 04:05:29;;;;;;;4.47;2.05;;;;;;;20.96;42.46;101851.16;5040972;28;20508;-63
2022/07/17 04:07:56;;;;;;;9.32;1.98;;;;;;;21.12;42.00;101846.47;5042331;28;20040;-63
2022/07/17 04:10:23;;;;;;;5.70;1.88;;;;;;;21.23;42.04;101856.00;5039854;28;20045;-64
2022/07/17 04:12:50;;;;;;;6.80;1.90;;;;;;;21.19;41.80;101841.88;5039676;28;20492;-63
2022/07/17 04:15:49;;;;;;;10.05;2.13;;;;;;;21.31;42.01;101852.22;5036596;28;20049;-64
2022/07/17 04:18:05;;;;;;;6.43;1.90;;;;;;;21.01;42.36;101853.75;5045487;28;20057;-68
2022/07/17 04:20:32;;;;;;;5.10;2.33;;;;;;;20.83;42.74;101866.41;5033800;28;20488;-64
2022/07/17 04:22:59;;;;;;;5.47;2.10;;;;;;;20.98;42.75;101868.44;5031696;28;20412;-63
2022/07/17 04:25:27;;;;;;;6.40;1.95;;;;;;;21.21;42.08;101877.94;5032839;28;20065;-63
2022/07/17 04:27:54;;;;;;;5.75;2.03;;;;;;;21.01;42.61;101879.78;5032899;28;20084;-64
2022/07/17 04:30:22;;;;;;;8.93;2.30;;;;;;;20.69;42.93;101885.56;5043505;28;20064;-66
2022/07/17 04:32:49;;;;;;;4.68;1.95;;;;;;;20.85;43.20;101883.66;5022656;28;20044;-63
2022/07/17 04:35:16;;;;;;;8.25;2.03;;;;;;;21.02;42.57;101881.44;5020998;28;20052;-63
2022/07/17 04:37:44;;;;;;;4.45;2.10;;;;;;;21.02;42.71;101881.44;5038581;28;20575;-63
2022/07/17 04:40:11;;;;;;;9.43;1.98;;;;;;;20.91;42.88;101893.44;5052833;28;20072;-64
2022/07/17 04:42:39;;;;;;;5.60;1.90;;;;;;;20.97;42.49;101887.22;5041901;28;20063;-63
2022/07/17 04:45:07;;;;;;;4.28;2.03;;;;;;;21.02;42.53;101898.22;5029201;28;20049;-63
2022/07/17 04:47:35;;;;;;;9.73;2.45;;;;;;;20.99;42.35;101901.72;5025396;28;20049;-63
2022/07/17 04:50:03;;;;;;;8.57;2.25;;;;;;;20.62;43.49;101907.75;5041730;28;20255;-63
2022/07/17 04:52:30;;;;;;;7.95;2.10;;;;;;;20.73;43.26;101917.31;5033427;28;20057;-66
2022/07/17 04:54:57;;;;;;;5.40;1.92;;;;;;;20.72;43.46;101913.69;5039925;28;20068;-66
2022/07/17 04:57:25;;;;;;;5.68;2.13;;;;;;;20.87;42.79;101912.13;5042529;28;20045;-67
2022/07/17 04:59:53;;;;;;;6.47;1.85;;;;;;;20.87;43.17;101909.34;5041340;28;20060;-63
2022/07/17 05:02:20;;;;;;;10.15;1.98;;;;;;;20.79;43.34;101904.66;5036108;28;20052;-64
2022/07/17 05:04:48;;;;;;;6.68;1.90;;;;;;;20.80;43.32;101911.91;5060671;28;20049;-66
2022/07/17 05:07:15;;;;;;;10.82;2.45;;;;;;;21.06;42.74;101907.53;5037429;28;20049;-64
2022/07/17 05:09:43;;;;;;;7.20;2.10;;;;;;;20.71;43.15;101908.44;5055002;28;20045;-68
2022/07/17 05:12:11;;;;;;;7.85;2.28;;;;;;;20.85;43.47;101906.06;5040134;28;20044;-68
2022/07/17 05:14:38;;;;;;;8.85;3.05;;;;;;;20.65;43.68;101916.25;5047979;28;20040;-69
2022/07/17 05:17:05;;;;;;;7.38;3.05;;;;;;;20.57;43.95;101920.00;5040581;28;20531;-63
2022/07/17 05:19:33;;;;;;;7.35;3.33;;;;;;;20.68;44.20;101921.13;5030276;28;20054;-63
2022/07/17 05:22:01;;;;;;;11.00;4.05;;;;;;;20.76;43.78;101917.41;5028915;28;20045;-67
2022/07/17 05:24:28;;;;;;;8.93;4.10;;;;;;;20.66;43.88;101920.66;5037046;28;20056;-62
2022/07/17 05:26:56;;;;;;;12.35;5.10;;;;;;;20.61;44.10;101923.72;5044350;28;20049;-68
2022/07/17 05:29:24;;;;;;;12.00;4.93;;;;;;;20.66;44.12;101922.69;5033771;28;20053;-64
2022/07/17 05:31:51;;;;;;;8.93;3.83;;;;;;;20.68;43.62;101923.94;5033112;28;20045;-64
2022/07/17 05:34:19;;;;;;;7.63;3.50;;;;;;;20.68;43.53;101920.31;5040767;28;20037;-63
2022/07/17 05:36:46;;;;;;;6.40;2.80;;;;;;;20.81;43.22;101921.94;5037895;28;20061;-67
2022/07/17 05:39:13;;;;;;;8.10;2.85;;;;;;;20.82;43.52;101923.56;5037087;28;20554;-63
2022/07/17 05:41:41;;;;;;;13.18;2.83;;;;;;;20.68;43.67;101925.91;5036260;28;20045;-64
2022/07/17 05:44:08;;;;;;;12.15;2.85;;;;;;;20.50;44.13;101930.16;5017106;28;20528;-63
2022/07/17 05:46:35;;;;;;;8.15;2.50;;;;;;;20.49;44.26;101931.31;5037586;28;20053;-63
2022/07/17 05:49:03;;;;;;;7.10;2.60;;;;;;;20.79;43.43;101938.28;5039347;28;20045;-63
2022/07/17 05:51:30;;;;;;;8.38;2.55;;;;;;;20.20;44.64;101928.75;5034946;28;20053;-63
2022/07/17 05:53:58;;;;;;;8.55;2.35;;;;;;;20.42;44.25;101931.91;5029203;28;20052;-63
2022/07/17 05:56:25;;;;;;;7.88;2.28;;;;;;;20.66;43.89;101933.88;5037341;28;20045;-64
2022/07/17 05:58:53;;;;;;;5.95;2.22;;;;;;;20.80;43.51;101923.91;5048705;28;20057;-64
2022/07/17 06:01:20;;;;;;;5.97;2.38;;;;;;;20.73;43.75;101925.69;5038001;28;20045;-64
2022/07/17 06:03:48;;;;;;;6.85;2.28;;;;;;;20.98;43.49;101930.06;5050286;28;20049;-63
2022/07/17 06:06:15;;;;;;;8.23;2.38;;;;;;;20.67;43.96;101929.91;5038276;28;21088;-64
2022/07/17 06:08:43;;;;;;;6.85;1.95;;;;;;;20.85;43.72;101939.69;5032368;28;20050;-64
2022/07/17 06:11:10;;;;;;;5.50;1.92;;;;;;;20.73;43.90;101936.91;5039295;28;20061;-64
2022/07/17 06:13:38;;;;;;;6.63;2.30;;;;;;;20.80;43.73;101935.13;5038318;28;20055;-63
2022/07/17 06:16:05;;;;;;;5.72;2.10;;;;;;;20.65;43.86;101938.66;5039850;28;20045;-64
2022/07/17 06:18:32;;;;;;;8.68;2.30;;;;;;;20.80;43.79;101926.72;5019554;28;20049;-63
2022/07/17 06:21:00;;;;;;;6.93;2.20;;;;;;;20.66;43.64;101937.47;5034218;28;20053;-63
2022/07/17 06:23:27;;;;;;;5.13;1.98;;;;;;;20.73;43.80;101936.91;5043617;28;20053;-63
2022/07/17 06:25:54;;;;;;;7.25;1.95;;;;;;;20.54;43.81;101933.91;5038067;28;20045;-63
2022/07/17 06:28:22;;;;;;;10.35;2.28;;;;;;;20.57;44.07;101935.97;5035893;28;20054;-64
2022/07/17 06:30:49;;;;;;;6.50;1.85;;;;;;;20.74;43.96;101939.34;5033622;28;20059;-64
2022/07/17 06:33:16;;;;;;;9.23;2.40;;;;;;;21.01;43.28;101933.00;5039497;28;20060;-64
2022/07/17 06:35:44;;;;;;;6.47;2.40;;;;;;;21.21;42.94;101939.59;5034974;28;20052;-63
2022/07/17 06:38:12;;;;;;;7.32;2.45;;;;;;;21.04;42.94;101934.28;5035015;28;20052;-64
2022/07/17 06:40:39;;;;;;;9.90;2.50;;;;;;;21.30;42.20;101934.69;5039641;28;20049;-63
2022/07/17 06:43:07;;;;;;;6.30;2.38;;;;;;;21.05;42.57;101936.75;5033897;28;20084;-64
2022/07/17 06:45:34;;;;;;;6.80;2.20;;;;;;;21.15;42.44;101941.00;5046443;28;20044;-64
2022/07/17 06:48:02;;;;;;;8.40;2.42;;;;;;;21.17;42.14;101928.28;5045893;28;20048;-65
2022/07/17 06:50:29;;;;;;;7.40;2.47;;;;;;;21.18;42.29;101918.69;5040748;28;20060;-63
2022/07/17 06:52:58;;;;;;;5.78;2.40;;;;;;;21.14;42.54;101923.41;5052276;28;20060;-63
2022/07/17 06:55:25;;;;;;;6.13;2.20;;;;;;;21.18;42.51;101924.31;5041951;28;20041;-64
2022/07/17 06:57:52;;;;;;;8.95;2.25;;;;;;;21.16;42.62;101926.66;5036976;28;20692;-64
2022/07/17 07:00:19;;;;;;;11.60;2.45;;;;;;;21.41;41.95;101924.56;5039261;28;20057;-64
2022/07/17 07:02:47;;;;;;;5.85;2.20;;;;;;;21.67;41.77;101924.91;5040042;28;20056;-63
2022/07/17 07:05:14;;;;;;;6.30;2.20;;;;;;;21.94;40.98;101918.47;5033393;28;20053;-63
2022/07/17 07:07:42;;;;;;;6.85;2.35;;;;;;;22.01;41.21;101923.44;5037064;28;20045;-63
2022/07/17 07:10:09;;;;;;;6.07;2.08;;;;;;;21.99;40.80;101920.16;5042490;28;20502;-63
2022/07/17 07:12:37;;;;;;;5.65;2.15;;;;;;;21.90;41.02;101917.53;5040860;28;20057;-64
2022/07/17 07:15:04;;;;;;;6.28;2.30;;;;;;;22.08;40.51;101929.22;5041675;28;20121;-64
2022/07/17 07:17:38;;;;;;;6.68;2.10;;;;;;;22.15;40.08;101930.22;5036857;28;20049;-64
2022/07/17 07:20:07;;;;;;;7.35;2.08;;;;;;;22.13;39.93;101937.38;5039488;28;20052;-64
2022/07/17 07:22:34;;;;;;;8.88;2.05;;;;;;;22.41;39.47;101926.03;5039266;28;20057;-63
2022/07/17 07:25:02;;;;;;;5.15;1.63;;;;;;;22.43;39.12;101929.28;5039260;28;20049;-64
2022/07/17 07:27:30;;;;;;;5.40;1.88;;;;;;;22.52;38.36;101924.31;5042484;28;20061;-63
2022/07/17 07:29:57;;;;;;;5.38;1.70;;;;;;;22.62;38.30;101927.41;5033215;28;22184;-64
2022/07/17 07:32:26;;;;;;;6.82;1.70;;;;;;;22.57;38.22;101927.69;5034211;28;20037;-63
2022/07/17 07:34:54;;;;;;;6.78;1.67;;;;;;;22.64;38.21;101915.78;5040030;28;20052;-63
2022/07/17 07:37:21;;;;;;;9.82;1.90;;;;;;;22.75;38.26;101925.28;5033920;28;20057;-64
2022/07/17 07:39:49;;;;;;;4.03;1.60;;;;;;;22.70;37.75;101926.38;5040222;28;20049;-64
2022/07/17 07:42:16;;;;;;;4.60;2.00;;;;;;;22.74;37.71;101915.22;5042215;28;20053;-64
2022/07/17 07:44:43;;;;;;;5.35;1.58;;;;;;;22.94;37.86;101914.09;5034903;28;20165;-63
2022/07/17 07:47:11;;;;;;;3.35;1.63;;;;;;;23.05;37.35;101906.66;5035392;28;20051;-64
2022/07/17 07:49:39;;;;;;;5.90;1.88;;;;;;;23.25;37.02;101902.69;5047541;28;20049;-64
2022/07/17 07:52:08;;;;;;;7.50;1.58;;;;;;;23.23;37.59;101911.50;5033954;28;20064;-64
2022/07/17 07:54:35;;;;;;;5.75;1.67;;;;;;;23.53;36.67;101914.53;5040647;28;20053;-64
2022/07/17 07:57:03;;;;;;;7.38;2.33;;;;;;;23.75;36.41;101912.94;5047204;28;20469;-64
2022/07/17 07:59:33;;;;;;;6.05;2.15;;;;;;;23.86;36.14;101908.31;5040099;28;20499;-64
2022/07/17 08:02:01;;;;;;;6.13;1.85;;;;;;;23.86;35.72;101902.69;5037919;28;20045;-63
2022/07/17 08:04:29;;;;;;;6.25;1.95;;;;;;;24.04;35.89;101912.31;5037085;28;20049;-64
2022/07/17 08:06:56;;;;;;;7.53;1.95;;;;;;;24.34;35.25;101919.66;5034355;28;20045;-64
2022/07/17 08:09:24;;;;;;;9.70;1.88;;;;;;;24.27;35.07;101913.09;5036872;28;20041;-64
2022/07/17 08:11:51;;;;;;;5.93;1.95;;;;;;;24.54;34.74;101917.56;5025171;28;20041;-63
2022/07/17 08:14:18;;;;;;;6.07;1.67;;;;;;;24.29;35.42;101911.53;5031794;28;20531;-65
2022/07/17 08:16:46;;;;;;;4.25;1.92;;;;;;;24.45;34.70;101917.81;5050524;28;20064;-65
2022/07/17 08:19:13;;;;;;;11.98;2.03;;;;;;;24.45;35.16;101905.75;5038058;28;20056;-64
2022/07/17 08:21:41;;;;;;;9.40;1.80;;;;;;;24.19;35.01;101905.72;5037560;28;20068;-64
2022/07/17 08:24:08;;;;;;;3.63;1.50;;;;;;;24.10;35.12;101914.44;5058116;28;20077;-63
2022/07/17 08:26:36;;;;;;;5.30;1.88;;;;;;;24.12;35.31;101914.88;5032040;28;20049;-64
2022/07/17 08:29:03;;;;;;;6.20;1.73;;;;;;;24.37;34.73;101910.44;5054748;28;20046;-64
2022/07/17 08:31:30;;;;;;;3.45;1.52;;;;;;;24.54;34.41;101906.28;5034315;28;20053;-64
2022/07/17 08:33:58;;;;;;;5.63;1.60;;;;;;;24.52;34.39;101908.66;5035026;28;20528;-64
2022/07/17 08:36:25;;;;;;;5.28;1.50;;;;;;;24.38;34.52;101908.44;5034909;28;20058;-67
2022/07/17 08:38:53;;;;;;;3.75;1.63;;;;;;;24.29;34.29;101911.53;5044679;28;21985;-64
2022/07/17 08:41:22;;;;;;;4.70;1.73;;;;;;;24.35;34.12;101909.22;5033251;28;20049;-64
2022/07/17 08:43:50;;;;;;;4.07;1.33;;;;;;;24.51;33.81;101916.28;5031331;28;20060;-64
2022/07/17 08:46:19;;;;;;;7.80;3.53;;;;;;;24.29;34.11;101902.25;5028513;28;21534;-63
2022/07/17 08:48:49;;;;;;;6.20;1.88;;;;;;;24.15;34.58;101902.84;5026164;28;20052;-64
2022/07/17 08:51:17;;;;;;;5.78;1.73;;;;;;;24.20;34.55;101910.97;5044766;28;20054;-65
2022/07/17 08:53:45;;;;;;;4.40;1.58;;;;;;;24.45;34.09;101908.56;5038727;28;20361;-63
2022/07/17 08:56:12;;;;;;;4.60;1.70;;;;;;;24.47;33.82;101911.81;5030689;28;20049;-64
2022/07/17 08:58:39;;;;;;;5.85;1.42;;;;;;;24.90;33.41;101910.44;5058713;28;20056;-64
2022/07/17 09:01:07;;;;;;;6.85;1.40;;;;;;;24.66;33.12;101914.50;5034924;28;20392;-65
2022/07/17 09:03:34;;;;;;;4.78;1.45;;;;;;;24.78;33.26;101905.88;5039411;28;20052;-64
2022/07/17 09:06:20;;;;;;;2.95;1.30;;;;;;;24.99;32.84;101906.16;5016881;28;20060;-69
2022/07/17 09:08:47;;;;;;;3.30;1.50;;;;;;;25.14;32.69;101907.97;5032621;28;20053;-68
2022/07/17 09:11:15;;;;;;;5.40;1.60;;;;;;;25.33;33.04;101902.16;5042030;28;20049;-68
2022/07/17 09:13:46;;;;;;;4.55;1.58;;;;;;;25.70;33.18;101893.72;5036453;28;20059;-63
2022/07/17 09:16:14;;;;;;;4.68;1.85;;;;;;;26.03;32.16;101902.13;5031326;28;20053;-63
2022/07/17 09:18:46;;;;;;;4.30;1.70;;;;;;;25.95;31.67;101896.78;5031484;28;20045;-64
2022/07/17 09:21:19;;;;;;;3.17;1.30;;;;;;;25.54;31.85;101896.00;5007012;28;20048;-65
2022/07/17 09:24:04;;;;;;;2.70;1.30;;;;;;;25.71;31.52;101897.34;5015662;28;20057;-63
2022/07/17 09:26:37;;;;;;;4.85;1.45;;;;;;;25.22;31.87;101904.03;5036774;28;20112;-63
2022/07/17 09:29:04;;;;;;;7.95;1.50;;;;;;;25.02;32.23;101896.94;5034431;28;20069;-65
2022/07/17 09:31:32;;;;;;;4.93;1.63;;;;;;;25.25;32.13;101900.44;5036629;28;20057;-63
2022/07/17 09:34:00;;;;;;;3.38;1.50;;;;;;;25.08;32.36;101905.88;5024638;28;20060;-67
2022/07/17 09:36:28;;;;;;;5.00;1.38;;;;;;;24.91;31.97;101907.28;5039864;28;20052;-64
2022/07/17 09:38:57;;;;;;;4.47;1.50;;;;;;;24.94;32.15;101909.31;5027866;28;20127;-64
2022/07/17 09:41:25;;;;;;;4.35;1.50;;;;;;;24.91;32.21;101906.44;5042119;28;20427;-65
2022/07/17 09:43:58;;;;;;;4.25;1.40;;;;;;;25.01;31.52;101902.94;5044740;28;20049;-64
2022/07/17 09:46:27;;;;;;;6.00;1.75;;;;;;;25.21;31.36;101910.06;5034047;28;20072;-62
2022/07/17 09:49:03;;;;;;;5.07;1.45;;;;;;;25.23;30.55;101900.03;5027901;28;20045;-66
2022/07/17 09:51:39;;;;;;;7.45;1.58;;;;;;;25.33;30.39;101892.91;5025672;28;20063;-63
2022/07/17 09:54:09;;;;;;;5.72;1.30;;;;;;;25.80;29.64;101898.69;5021206;28;20056;-64
2022/07/17 09:56:37;;;;;;;3.58;1.40;;;;;;;25.66;29.83;101898.53;5028196;28;20049;-64
2022/07/17 09:59:11;;;;;;;5.13;1.35;;;;;;;25.62;29.65;101896.84;5028931;28;20543;-65
2022/07/17 10:01:41;;;;;;;5.65;1.60;;;;;;;25.58;29.98;101898.84;5035540;28;20057;-63
2022/07/17 10:04:10;;;;;;;5.38;1.58;;;;;;;25.39;30.36;101900.66;5034460;28;20133;-63
2022/07/17 10:06:38;;;;;;;3.65;1.40;;;;;;;25.58;30.12;101896.81;5029609;28;20046;-63
2022/07/17 10:09:06;;;;;;;6.15;2.28;;;;;;;25.89;32.85;101904.78;5030780;28;20044;-46
2022/07/17 10:11:36;;;;;;;6.05;1.70;;;;;;;26.43;30.41;101902.06;5032261;28;20053;-63
2022/07/17 10:14:14;;;;;;;4.43;1.67;;;;;;;26.10;29.09;101905.03;5022125;28;20046;-61
2022/07/17 10:16:42;;;;;;;4.22;1.50;;;;;;;25.92;29.24;101901.22;5025071;28;20064;-61
2022/07/17 10:19:21;;;;;;;8.00;1.60;;;;;;;26.07;29.56;101903.00;5020515;28;20054;-63
2022/07/17 10:21:54;;;;;;;5.50;1.70;;;;;;;25.65;29.48;101899.72;5021312;28;20130;-63
2022/07/17 10:24:23;;;;;;;4.75;1.90;;;;;;;25.69;29.56;101899.75;5033906;28;20052;-64
2022/07/17 10:26:50;;;;;;;6.63;1.88;;;;;;;25.75;29.56;101918.75;5024049;28;20041;-63
2022/07/17 10:29:32;;;;;;;3.83;1.48;;;;;;;25.72;29.34;101910.28;5026737;28;20054;-64
2022/07/17 10:32:06;;;;;;;3.80;1.67;;;;;;;25.82;29.71;101918.06;5029491;28;20049;-64
2022/07/17 10:34:53;;;;;;;6.28;1.73;;;;;;;25.74;29.62;101908.69;5025475;28;20050;-64
2022/07/17 10:37:21;;;;;;;7.15;1.58;;;;;;;26.00;29.72;101910.53;5024580;28;20052;-64
2022/07/17 10:40:20;;;;;;;7.22;1.73;;;;;;;26.10;29.34;101915.53;5025335;28;20054;-63
2022/07/17 10:42:56;;;;;;;4.05;1.60;;;;;;;26.27;28.32;101912.03;5034938;28;20061;-64
2022/07/17 10:45:26;;;;;;;7.65;1.73;;;;;;;26.16;28.52;101919.59;5026847;28;20053;-64
2022/07/17 10:48:03;;;;;;;3.70;1.33;;;;;;;26.16;28.47;101913.94;5020597;28;20050;-65
2022/07/17 10:50:38;;;;;;;6.07;1.60;;;;;;;26.17;28.36;101912.75;5017894;28;20050;-64
2022/07/17 10:53:24;;;;;;;4.68;1.45;;;;;;;26.22;27.51;101912.41;5041398;28;20058;-64
2022/07/17 10:56:04;;;;;;;3.03;1.67;;;;;;;26.20;26.60;101909.16;5026710;28;20050;-64
2022/07/17 10:58:40;;;;;;;3.83;1.30;;;;;;;26.43;26.91;101916.19;5026093;28;20057;-71
2022/07/17 11:01:18;;;;;;;6.25;1.58;;;;;;;26.53;25.95;101909.81;5020590;28;20066;-65
2022/07/17 11:03:57;;;;;;;7.18;1.50;;;;;;;26.57;25.89;101904.19;5052733;28;20060;-65
2022/07/17 11:06:33;;;;;;;5.03;1.58;;;;;;;26.86;25.70;101905.19;5051627;28;20573;-72
2022/07/17 11:09:03;;;;;;;4.88;1.70;;;;;;;26.75;25.85;101898.66;5022432;28;20489;-73
2022/07/17 11:11:40;;;;;;;3.55;1.70;;;;;;;26.87;26.09;101884.22;5029385;28;20444;-73
2022/07/17 11:14:18;;;;;;;6.45;1.60;;;;;;;26.74;25.84;101895.03;5024247;28;20064;-73
2022/07/17 11:16:54;;;;;;;5.03;1.35;;;;;;;26.60;26.34;101892.09;5033960;28;20382;-73
2022/07/17 11:19:26;;;;;;;5.40;1.50;;;;;;;26.69;26.53;101888.94;5031422;28;20053;-73
2022/07/17 11:21:55;;;;;;;3.85;1.70;;;;;;;26.82;25.43;101891.03;5019017;28;20049;-72
2022/07/17 11:24:23;;;;;;;2.60;1.52;;;;;;;26.90;25.83;101898.38;5035882;28;20049;-71
2022/07/17 11:26:51;;;;;;;4.90;1.58;;;;;;;26.95;25.52;101895.16;5004020;28;20057;-71
2022/07/17 11:29:19;;;;;;;5.38;1.50;;;;;;;26.74;25.71;101883.72;5028996;28;20038;-71
2022/07/17 11:31:46;;;;;;;3.03;1.48;;;;;;;26.91;26.12;101887.84;5056496;28;20072;-72